createdAt,value
2022-10-24T00:01:27.243Z,14.70
2022-10-24T00:03:54.931Z,14.70
2022-10-24T00:06:22.523Z,14.70
2022-10-24T00:08:50.165Z,14.80
2022-10-24T00:11:24.627Z,14.60
2022-10-24T00:13:53.440Z,14.60
2022-10-24T00:16:21.211Z,14.60
2022-10-24T00:18:48.765Z,14.50
2022-10-24T00:21:16.192Z,14.40
2022-10-24T00:23:43.734Z,14.40
2022-10-24T00:26:12.011Z,14.40
2022-10-24T00:28:40.288Z,14.60
2022-10-24T00:31:09.183Z,14.70
2022-10-24T00:33:36.790Z,14.90
2022-10-24T00:36:04.357Z,14.80
2022-10-24T00:38:31.752Z,14.60
2022-10-24T00:40:59.191Z,14.40
2022-10-24T00:43:27.269Z,14.40
2022-10-24T00:45:57.511Z,14.40
2022-10-24T00:48:37.186Z,14.60
2022-10-24T00:51:28.137Z,14.60
2022-10-24T00:54:03.299Z,14.60
2022-10-24T00:56:45.930Z,14.80
2022-10-24T00:59:15.718Z,14.90
2022-10-24T01:01:45.108Z,14.80
2022-10-24T01:04:13.941Z,14.80
2022-10-24T01:06:46.591Z,14.90
2022-10-24T01:09:29.265Z,15.10
2022-10-24T01:12:20.676Z,14.90
2022-10-24T01:15:14.207Z,14.70
2022-10-24T01:17:52.823Z,14.70
2022-10-24T01:20:48.597Z,14.40
2022-10-24T01:23:27.024Z,14.30
2022-10-24T01:26:30.155Z,14.30
2022-10-24T01:29:19.221Z,14.30
2022-10-24T01:32:13.915Z,14.20
2022-10-24T01:34:44.564Z,14.20
2022-10-24T01:37:48.716Z,14.30
2022-10-24T01:40:22.865Z,14.40
2022-10-24T01:42:52.361Z,14.40
2022-10-24T01:45:30.013Z,14.40
2022-10-24T01:48:00.173Z,14.20
2022-10-24T01:50:29.748Z,14.30
2022-10-24T01:52:59.021Z,14.40
2022-10-24T01:55:26.866Z,14.40
2022-10-24T01:57:54.293Z,14.30
2022-10-24T02:00:23.845Z,14.40
2022-10-24T02:03:16.969Z,14.50
2022-10-24T02:05:49.406Z,14.70
2022-10-24T02:08:21.968Z,14.80
2022-10-24T02:10:54.089Z,14.80
2022-10-24T02:13:31.907Z,14.60
2022-10-24T02:16:02.971Z,14.50
2022-10-24T02:18:32.612Z,14.50
2022-10-24T02:21:07.135Z,14.40
2022-10-24T02:23:57.157Z,14.30
2022-10-24T02:26:54.060Z,14.40
2022-10-24T02:29:34.392Z,14.80
2022-10-24T02:32:06.307Z,14.70
2022-10-24T02:34:35.524Z,14.50
2022-10-24T02:37:04.115Z,14.40
2022-10-24T02:39:33.271Z,14.30
2022-10-24T02:42:03.066Z,14.10
2022-10-24T02:44:32.182Z,14.10
2022-10-24T02:47:02.367Z,14.40
2022-10-24T02:49:29.853Z,14.80
2022-10-24T02:51:57.429Z,14.80
2022-10-24T02:54:24.996Z,14.70
2022-10-24T02:56:56.678Z,14.60
2022-10-24T02:59:24.170Z,14.40
2022-10-24T03:01:51.607Z,14.30
2022-10-24T03:04:19.169Z,14.20
2022-10-24T03:06:46.651Z,14.30
2022-10-24T03:09:14.152Z,14.60
2022-10-24T03:11:41.740Z,14.80
2022-10-24T03:14:09.175Z,14.60
2022-10-24T03:16:36.638Z,14.40
2022-10-24T03:19:04.228Z,14.50
2022-10-24T03:21:31.849Z,14.80
2022-10-24T03:23:59.523Z,15.00
2022-10-24T03:26:27.025Z,15.00
2022-10-24T03:28:54.442Z,15.10
2022-10-24T03:31:21.931Z,14.80
2022-10-24T03:33:49.321Z,14.60
2022-10-24T03:36:17.234Z,14.40
2022-10-24T03:38:44.749Z,14.40
2022-10-24T03:41:12.157Z,14.30
2022-10-24T03:43:39.532Z,14.30
2022-10-24T03:46:07.129Z,14.50
2022-10-24T03:48:34.641Z,14.70
2022-10-24T03:51:02.143Z,14.80
2022-10-24T03:53:29.815Z,15.00
2022-10-24T03:55:57.534Z,15.20
2022-10-24T03:58:25.110Z,15.30
2022-10-24T04:00:52.949Z,15.20
2022-10-24T04:03:20.380Z,15.10
2022-10-24T04:05:47.817Z,15.00
2022-10-24T04:08:15.304Z,14.90
2022-10-24T04:10:42.735Z,14.70
2022-10-24T04:13:10.212Z,14.40
2022-10-24T04:15:37.696Z,14.50
2022-10-24T04:18:05.247Z,14.80
2022-10-24T04:20:32.684Z,14.90
2022-10-24T04:23:02.357Z,15.00
2022-10-24T04:25:31.971Z,15.10
2022-10-24T04:27:59.398Z,15.30
2022-10-24T04:30:28.743Z,15.40
2022-10-24T04:32:56.903Z,15.40
2022-10-24T04:35:25.854Z,15.40
2022-10-24T04:37:53.703Z,15.20
2022-10-24T04:40:21.250Z,14.90
2022-10-24T04:42:48.658Z,14.80
2022-10-24T04:45:16.229Z,14.70
2022-10-24T04:47:43.927Z,14.50
2022-10-24T04:50:11.634Z,14.30
2022-10-24T04:52:39.198Z,14.50
2022-10-24T04:55:06.904Z,14.60
2022-10-24T04:57:34.256Z,14.30
2022-10-24T05:00:01.692Z,14.50
2022-10-24T05:02:29.240Z,14.70
2022-10-24T05:04:56.742Z,14.90
2022-10-24T05:07:24.128Z,15.10
2022-10-24T05:09:51.473Z,14.80
2022-10-24T05:14:51.068Z,14.30
2022-10-24T05:17:18.412Z,14.10
2022-10-24T05:19:45.940Z,14.20
2022-10-24T05:22:13.365Z,14.10
2022-10-24T05:24:40.979Z,14.10
2022-10-24T05:27:08.408Z,14.10
2022-10-24T05:29:37.046Z,14.10
2022-10-24T05:32:05.001Z,14.10
2022-10-24T05:34:32.488Z,14.10
2022-10-24T05:36:59.998Z,14.10
2022-10-24T05:39:28.160Z,14.20
2022-10-24T05:41:55.672Z,14.00
2022-10-24T05:44:23.344Z,13.90
2022-10-24T05:46:50.794Z,13.80
2022-10-24T05:49:18.635Z,13.80
2022-10-24T05:51:46.062Z,13.70
2022-10-24T05:56:45.645Z,13.80
2022-10-24T05:59:13.133Z,14.10
2022-10-24T06:01:41.142Z,14.10
2022-10-24T06:04:11.366Z,14.10
2022-10-24T06:06:44.166Z,14.00
2022-10-24T06:09:12.675Z,14.00
2022-10-24T06:11:40.212Z,13.90
2022-10-24T06:14:07.623Z,13.90
2022-10-24T06:16:35.551Z,14.10
2022-10-24T06:19:03.099Z,14.20
2022-10-24T06:21:30.529Z,14.30
2022-10-24T06:23:58.222Z,14.50
2022-10-24T06:26:26.157Z,14.70
2022-10-24T06:28:54.737Z,14.70
2022-10-24T06:31:22.248Z,14.90
2022-10-24T06:33:50.287Z,15.00
2022-10-24T06:36:17.832Z,15.20
2022-10-24T06:38:45.342Z,15.60
2022-10-24T06:41:14.640Z,15.70
2022-10-24T06:43:42.543Z,15.80
2022-10-24T06:46:13.121Z,15.80
2022-10-24T06:48:40.603Z,16.00
2022-10-24T06:51:08.332Z,16.20
2022-10-24T06:53:35.828Z,16.40
2022-10-24T06:56:05.418Z,16.60
2022-10-24T06:58:35.373Z,16.70
2022-10-24T07:01:11.078Z,16.90
2022-10-24T07:03:38.672Z,17.10
2022-10-24T07:06:12.093Z,17.20
2022-10-24T07:08:39.595Z,17.30
2022-10-24T07:11:07.188Z,17.30
2022-10-24T07:13:34.654Z,17.40
2022-10-24T07:16:02.070Z,17.60
2022-10-24T07:18:29.494Z,17.80
2022-10-24T07:21:02.417Z,17.90
2022-10-24T07:23:29.955Z,17.90
2022-10-24T07:26:08.469Z,17.90
2022-10-24T07:28:38.103Z,18.00
2022-10-24T07:31:06.591Z,18.00
2022-10-24T07:33:34.438Z,18.10
2022-10-24T07:36:01.818Z,18.20
2022-10-24T07:38:29.270Z,18.40
2022-10-24T07:40:56.755Z,18.40
2022-10-24T07:43:24.391Z,18.60
2022-10-24T07:45:52.326Z,18.80
2022-10-24T07:48:20.157Z,18.90
2022-10-24T07:50:48.260Z,19.20
2022-10-24T07:53:15.816Z,19.40
2022-10-24T07:55:44.085Z,19.30
2022-10-24T07:58:12.213Z,19.10
2022-10-24T08:00:44.866Z,19.30
2022-10-24T08:03:13.584Z,19.50
2022-10-24T08:05:41.742Z,19.80
2022-10-24T08:08:30.665Z,19.90
2022-10-24T08:10:57.559Z,19.90
2022-10-24T08:13:25.187Z,20.30
2022-10-24T08:15:52.661Z,20.30
2022-10-24T08:18:20.048Z,20.20
2022-10-24T08:20:57.914Z,20.50
2022-10-24T08:23:25.720Z,20.70
2022-10-24T08:25:53.709Z,21.00
2022-10-24T08:28:21.258Z,20.80
2022-10-24T08:30:59.643Z,20.80
2022-10-24T08:33:27.255Z,21.10
2022-10-24T08:35:59.268Z,21.10
2022-10-24T08:38:28.204Z,21.20
2022-10-24T08:40:57.127Z,21.40
2022-10-24T08:43:25.643Z,21.50
2022-10-24T08:45:53.027Z,21.50
2022-10-24T08:48:28.435Z,21.30
2022-10-24T08:51:08.996Z,21.40
2022-10-24T08:53:36.830Z,21.30
2022-10-24T08:56:06.571Z,21.30
2022-10-24T08:58:42.894Z,21.30
2022-10-24T09:01:31.434Z,21.10
2022-10-24T09:04:03.890Z,21.20
2022-10-24T09:06:33.230Z,20.90
2022-10-24T09:09:09.614Z,20.90
2022-10-24T09:12:03.003Z,20.90
2022-10-24T09:14:32.825Z,20.90
2022-10-24T09:17:14.473Z,20.90
2022-10-24T09:19:48.907Z,20.90
2022-10-24T09:22:17.360Z,20.90
2022-10-24T09:24:53.589Z,20.90
2022-10-24T09:27:25.594Z,21.20
2022-10-24T09:29:53.225Z,21.40
2022-10-24T09:32:23.368Z,21.60
2022-10-24T09:34:50.823Z,22.00
2022-10-24T09:37:41.240Z,22.20
2022-10-24T09:40:19.192Z,22.00
2022-10-24T09:43:11.351Z,21.70
2022-10-24T09:45:42.265Z,22.00
2022-10-24T09:48:30.678Z,22.20
2022-10-24T09:50:59.886Z,22.20
2022-10-24T09:53:36.352Z,22.10
2022-10-24T09:56:13.191Z,22.10
2022-10-24T09:58:41.715Z,22.30
2022-10-24T10:01:29.474Z,22.40
2022-10-24T10:04:09.385Z,22.70
2022-10-24T10:06:48.207Z,22.60
2022-10-24T10:09:24.714Z,22.60
2022-10-24T10:12:03.019Z,22.40
2022-10-24T10:14:31.019Z,22.40
2022-10-24T10:17:05.271Z,22.50
2022-10-24T10:19:39.081Z,22.30
2022-10-24T10:22:23.685Z,22.40
2022-10-24T10:24:51.482Z,22.30
2022-10-24T10:27:40.409Z,22.50
2022-10-24T10:30:17.356Z,22.50
2022-10-24T10:32:53.548Z,22.60
2022-10-24T10:35:32.310Z,22.60
2022-10-24T10:38:17.675Z,22.30
2022-10-24T10:40:50.188Z,22.10
2022-10-24T10:43:36.459Z,22.10
2022-10-24T10:46:30.012Z,22.30
2022-10-24T10:49:15.310Z,22.30
2022-10-24T10:51:57.557Z,22.40
2022-10-24T10:54:52.928Z,22.50
2022-10-24T10:57:28.870Z,22.50
2022-10-24T11:00:08.734Z,22.40
2022-10-24T11:02:52.959Z,22.50
2022-10-24T11:05:58.314Z,22.50
2022-10-24T11:08:33.478Z,22.70
2022-10-24T11:11:05.300Z,22.50
2022-10-24T11:14:17.271Z,22.80
2022-10-24T11:16:45.858Z,22.70
2022-10-24T11:19:28.777Z,22.60
2022-10-24T11:22:00.510Z,22.50
2022-10-24T11:24:30.914Z,22.60
2022-10-24T11:27:09.334Z,22.70
2022-10-24T11:29:40.351Z,22.70
2022-10-24T11:32:20.781Z,22.70
2022-10-24T11:35:40.595Z,22.70
2022-10-24T11:38:16.072Z,22.80
2022-10-24T11:40:48.202Z,23.00
2022-10-24T11:43:25.793Z,23.20
2022-10-24T11:46:38.660Z,23.20
2022-10-24T11:49:15.405Z,23.00
2022-10-24T11:51:59.622Z,23.10
2022-10-24T11:54:35.037Z,23.50
2022-10-24T11:57:09.197Z,23.30
2022-10-24T11:59:39.710Z,23.40
2022-10-24T12:03:24.347Z,23.40
2022-10-24T12:06:17.620Z,23.40
2022-10-24T12:09:05.765Z,23.30
2022-10-24T12:11:51.862Z,23.40
2022-10-24T12:14:38.548Z,23.60
2022-10-24T12:17:31.043Z,23.40
2022-10-24T12:20:01.569Z,23.40
2022-10-24T12:22:36.228Z,23.30
2022-10-24T12:25:06.628Z,23.20
2022-10-24T12:27:38.937Z,23.30
2022-10-24T12:30:09.226Z,23.30
2022-10-24T12:32:43.355Z,23.60
2022-10-24T12:35:33.897Z,23.40
2022-10-24T12:38:15.471Z,23.30
2022-10-24T12:40:46.015Z,23.20
2022-10-24T12:43:30.159Z,23.10
2022-10-24T12:46:01.880Z,23.20
2022-10-24T12:48:31.381Z,23.30
2022-10-24T12:51:36.959Z,23.50
2022-10-24T12:54:13.410Z,23.30
2022-10-24T12:56:50.084Z,23.30
2022-10-24T12:59:29.551Z,23.30
2022-10-24T13:02:21.332Z,23.30
2022-10-24T13:04:52.385Z,23.20
2022-10-24T13:07:50.957Z,23.20
2022-10-24T13:10:33.771Z,23.20
2022-10-24T13:15:54.711Z,23.20
2022-10-24T13:18:31.115Z,23.30
2022-10-24T13:21:16.223Z,23.40
2022-10-24T13:23:46.773Z,23.50
2022-10-24T13:26:38.777Z,23.40
2022-10-24T13:29:12.625Z,23.40
2022-10-24T13:31:42.551Z,23.50
2022-10-24T13:34:23.156Z,23.60
2022-10-24T13:37:22.535Z,23.60
2022-10-24T13:39:55.320Z,23.40
2022-10-24T13:42:35.081Z,23.30
2022-10-24T13:45:25.708Z,23.40
2022-10-24T13:48:01.986Z,23.40
2022-10-24T13:50:33.653Z,23.30
2022-10-24T13:53:12.295Z,23.40
2022-10-24T13:55:44.175Z,23.60
2022-10-24T13:58:16.217Z,23.60
2022-10-24T14:00:47.635Z,23.40
2022-10-24T14:03:17.958Z,23.50
2022-10-24T14:05:51.962Z,23.40
2022-10-24T14:08:38.186Z,23.50
2022-10-24T14:11:08.511Z,23.30
2022-10-24T14:13:45.560Z,23.40
2022-10-24T14:16:13.622Z,23.30
2022-10-24T14:18:41.841Z,23.30
2022-10-24T14:21:22.766Z,23.20
2022-10-24T14:24:03.316Z,23.30
2022-10-24T14:26:30.989Z,23.30
2022-10-24T14:29:00.984Z,23.40
2022-10-24T14:31:34.753Z,23.30
2022-10-24T14:34:06.222Z,23.40
2022-10-24T14:36:37.868Z,23.30
2022-10-24T14:39:05.685Z,23.20
2022-10-24T14:41:40.995Z,23.20
2022-10-24T14:44:14.118Z,23.20
2022-10-24T14:46:44.633Z,23.30
2022-10-24T14:49:29.931Z,23.30
2022-10-24T14:52:08.972Z,23.20
2022-10-24T14:54:37.245Z,23.10
2022-10-24T14:57:10.250Z,23.10
2022-10-24T14:59:44.237Z,23.00
2022-10-24T15:02:23.623Z,23.10
2022-10-24T15:04:52.127Z,23.20
2022-10-24T15:07:40.727Z,23.10
2022-10-24T15:10:13.311Z,23.10
2022-10-24T15:12:53.453Z,23.00
2022-10-24T15:15:27.745Z,22.90
2022-10-24T15:17:59.637Z,22.80
2022-10-24T15:20:29.970Z,22.90
2022-10-24T15:23:00.967Z,22.70
2022-10-24T15:25:30.944Z,22.60
2022-10-24T15:27:59.533Z,22.50
2022-10-24T15:30:39.309Z,22.60
2022-10-24T15:33:06.981Z,22.50
2022-10-24T15:35:39.532Z,22.50
2022-10-24T15:38:17.431Z,22.50
2022-10-24T15:40:47.196Z,22.40
2022-10-24T15:43:17.700Z,22.30
2022-10-24T15:45:45.843Z,22.30
2022-10-24T15:48:13.309Z,22.30
2022-10-24T15:50:46.217Z,22.30
2022-10-24T15:53:19.742Z,22.20
2022-10-24T15:55:47.306Z,22.20
2022-10-24T15:58:16.742Z,22.20
2022-10-24T16:00:44.717Z,22.10
2022-10-24T16:03:17.441Z,22.10
2022-10-24T16:05:50.550Z,22.00
2022-10-24T16:08:19.842Z,22.00
2022-10-24T16:10:51.860Z,21.90
2022-10-24T16:13:21.861Z,21.90
2022-10-24T16:15:50.051Z,21.90
2022-10-24T16:18:17.663Z,21.80
2022-10-24T16:20:45.189Z,21.80
2022-10-24T16:23:16.095Z,21.90
2022-10-24T16:25:43.942Z,21.90
2022-10-24T16:28:11.568Z,21.90
2022-10-24T16:30:40.470Z,21.90
2022-10-24T16:33:08.355Z,22.00
2022-10-24T16:35:37.473Z,22.00
2022-10-24T16:38:06.857Z,21.80
2022-10-24T16:40:43.129Z,21.70
2022-10-24T16:43:12.516Z,21.70
2022-10-24T16:45:40.208Z,21.70
2022-10-24T16:48:07.707Z,21.60
2022-10-24T16:50:35.563Z,21.50
2022-10-24T16:53:07.003Z,21.50
2022-10-24T16:55:34.766Z,21.50
2022-10-24T16:58:02.223Z,21.50
2022-10-24T17:00:30.425Z,21.40
2022-10-24T17:02:58.553Z,21.40
2022-10-24T17:05:28.315Z,21.30
2022-10-24T17:07:55.762Z,21.20
2022-10-24T17:10:24.841Z,21.10
2022-10-24T17:12:53.374Z,21.10
2022-10-24T17:15:22.334Z,21.10
2022-10-24T17:17:50.307Z,21.00
2022-10-24T17:20:17.849Z,21.00
2022-10-24T17:22:46.527Z,20.90
2022-10-24T17:25:26.314Z,20.90
2022-10-24T17:27:55.107Z,20.80
2022-10-24T17:30:25.351Z,20.70
2022-10-24T17:32:53.449Z,20.80
2022-10-24T17:35:23.437Z,20.70
2022-10-24T17:37:50.799Z,20.70
2022-10-24T17:40:25.212Z,20.70
2022-10-24T17:42:52.861Z,20.70
2022-10-24T17:45:23.135Z,20.70
2022-10-24T17:47:50.935Z,20.60
2022-10-24T17:50:19.347Z,20.60
2022-10-24T17:52:50.988Z,20.50
2022-10-24T17:55:45.100Z,20.40
2022-10-24T17:58:12.788Z,20.40
2022-10-24T18:00:40.915Z,20.50
2022-10-24T18:03:11.321Z,20.40
2022-10-24T18:05:39.102Z,20.40
2022-10-24T18:08:09.054Z,20.40
2022-10-24T18:10:37.961Z,20.40
2022-10-24T18:13:05.878Z,20.40
2022-10-24T18:15:33.699Z,20.40
2022-10-24T18:18:01.144Z,20.30
2022-10-24T18:20:28.619Z,20.30
2022-10-24T18:22:56.087Z,20.20
2022-10-24T18:25:23.706Z,20.10
2022-10-24T18:27:51.482Z,20.00
2022-10-24T18:30:19.606Z,20.00
2022-10-24T18:32:47.506Z,20.00
2022-10-24T18:35:15.690Z,19.90
2022-10-24T18:37:43.227Z,19.90
2022-10-24T18:40:11.317Z,19.90
2022-10-24T18:43:05.251Z,19.80
2022-10-24T18:45:33.479Z,19.80
2022-10-24T18:48:01.342Z,19.70
2022-10-24T18:50:29.587Z,19.50
2022-10-24T18:53:08.329Z,19.30
2022-10-24T18:55:36.441Z,19.10
2022-10-24T18:58:04.108Z,18.80
2022-10-24T19:00:33.209Z,18.70
2022-10-24T19:03:25.165Z,18.60
2022-10-24T19:06:14.932Z,18.80
2022-10-24T19:08:42.454Z,18.90
2022-10-24T19:11:14.179Z,19.00
2022-10-24T19:13:44.733Z,18.90
2022-10-24T19:16:18.147Z,18.60
2022-10-24T19:18:54.125Z,18.40
2022-10-24T19:21:21.947Z,18.30
2022-10-24T19:23:50.882Z,18.20
2022-10-24T19:26:18.344Z,18.40
2022-10-24T19:28:45.780Z,18.50
2022-10-24T19:31:14.934Z,18.70
2022-10-24T19:33:42.673Z,18.70
2022-10-24T19:36:13.339Z,18.70
2022-10-24T19:38:44.277Z,18.60
2022-10-24T19:41:11.790Z,18.60
2022-10-24T19:43:39.317Z,18.50
2022-10-24T19:46:18.722Z,18.20
2022-10-24T19:48:51.246Z,18.00
2022-10-24T19:51:20.185Z,18.10
2022-10-24T19:53:49.695Z,18.10
2022-10-24T19:56:25.225Z,18.10
2022-10-24T19:58:54.222Z,18.00
2022-10-24T20:01:24.670Z,18.00
2022-10-24T20:03:52.593Z,17.90
2022-10-24T20:06:20.055Z,17.90
2022-10-24T20:08:48.539Z,18.00
2022-10-24T20:11:16.841Z,18.10
2022-10-24T20:13:44.424Z,17.90
2022-10-24T20:16:13.409Z,17.90
2022-10-24T20:18:43.019Z,18.10
2022-10-24T20:21:12.283Z,18.30
2022-10-24T20:23:41.614Z,18.30
2022-10-24T20:26:15.150Z,18.30
2022-10-24T20:28:45.282Z,18.30
2022-10-24T20:31:30.360Z,18.00
2022-10-24T20:34:06.900Z,17.80
2022-10-24T20:36:38.082Z,17.80
2022-10-24T20:39:07.257Z,18.00
2022-10-24T20:41:35.016Z,18.00
2022-10-24T20:44:02.962Z,17.90
2022-10-24T20:46:31.484Z,17.90
2022-10-24T20:48:59.264Z,17.80
2022-10-24T20:51:27.156Z,17.80
2022-10-24T20:53:54.783Z,17.90
2022-10-24T20:56:26.087Z,17.90
2022-10-24T20:58:55.064Z,17.80
2022-10-24T21:01:24.997Z,17.70
2022-10-24T21:03:53.198Z,17.80
2022-10-24T21:06:26.717Z,17.90
2022-10-24T21:08:56.894Z,17.80
2022-10-24T21:11:27.687Z,17.70
2022-10-24T21:14:07.389Z,17.80
2022-10-24T21:16:34.870Z,17.80
2022-10-24T21:19:02.979Z,17.90
2022-10-24T21:21:30.482Z,18.10
2022-10-24T21:24:03.819Z,18.10
2022-10-24T21:26:38.302Z,18.10
2022-10-24T21:29:09.430Z,18.10
2022-10-24T21:31:51.403Z,17.90
2022-10-24T21:34:19.703Z,17.80
2022-10-24T21:36:47.388Z,17.80
2022-10-24T21:39:16.162Z,17.80
2022-10-24T21:41:44.159Z,17.90
2022-10-24T21:44:11.966Z,17.90
2022-10-24T21:46:39.359Z,17.80
2022-10-24T21:49:06.824Z,17.90
2022-10-24T21:51:36.884Z,17.70
2022-10-24T21:54:08.237Z,17.50
2022-10-24T21:56:36.815Z,17.50
2022-10-24T21:59:06.601Z,17.20
2022-10-24T22:01:37.062Z,17.40
2022-10-24T22:04:06.193Z,17.50
2022-10-24T22:06:35.400Z,17.30
2022-10-24T22:09:04.669Z,17.10
2022-10-24T22:11:34.038Z,17.00
2022-10-24T22:14:03.311Z,17.10
2022-10-24T22:16:32.108Z,17.10
2022-10-24T22:19:01.668Z,17.00
2022-10-24T22:21:37.708Z,16.90
2022-10-24T22:24:13.978Z,16.90
2022-10-24T22:26:41.839Z,17.00
2022-10-24T22:29:10.833Z,17.20
2022-10-24T22:31:38.718Z,17.30
2022-10-24T22:34:06.529Z,17.40
2022-10-24T22:36:45.822Z,17.20
2022-10-24T22:39:16.684Z,17.10
2022-10-24T22:41:45.764Z,16.90
2022-10-24T22:44:15.303Z,16.90
2022-10-24T22:47:07.116Z,16.90
2022-10-24T22:49:52.785Z,17.00
2022-10-24T22:52:20.594Z,17.20
2022-10-24T22:54:48.294Z,17.30
2022-10-24T22:57:16.045Z,17.40
2022-10-24T22:59:43.726Z,17.30
2022-10-24T23:02:33.943Z,17.30
2022-10-24T23:05:05.986Z,17.30
2022-10-24T23:07:49.329Z,17.50
2022-10-24T23:10:21.942Z,17.70
2022-10-24T23:12:50.125Z,17.80
2022-10-24T23:15:19.752Z,17.90
2022-10-24T23:17:48.425Z,18.00
2022-10-24T23:20:27.822Z,18.10
2022-10-24T23:23:09.054Z,18.10
2022-10-24T23:25:49.680Z,18.00
2022-10-24T23:28:30.370Z,18.00
2022-10-24T23:30:57.935Z,18.00
2022-10-24T23:33:28.759Z,18.00
2022-10-24T23:36:00.052Z,18.10
2022-10-24T23:38:28.000Z,18.10
2022-10-24T23:40:55.891Z,17.90
2022-10-24T23:43:23.618Z,17.80
2022-10-24T23:46:02.096Z,17.70
2022-10-24T23:49:00.546Z,17.70
2022-10-24T23:51:43.684Z,17.80
2022-10-24T23:54:12.657Z,17.80
2022-10-24T23:56:40.607Z,17.70
2022-10-24T23:59:08.072Z,17.70
